F E Warren AFB, Wyoming
Current Conditions -  °F | °C
As of 2:53 AM on Friday 24 Oct 2014 (Local Time) from KCYS Reporting Station
Clear Clear  
Wind Chill: 11°   Ceiling: Unl
Heat Index: 11°   Visibility: 10mi
Dew Point: -2°   Wind: 9mph
Humidity: 41%   Direction: 290°WNW
Pressure: 30.16"   Gusts: NA
Location:  41.13°N, 104.82°W
Report Text: KCYS 240853Z AUTO 29008KT 10SM CLR 11/M02 A3016 RMK AO2 SLP147 T01061022 51005
Loading
Personal Weather Stations






























Interactive Weather Map
Tropical Storm Tracking
New forecast layout! Learn more

10-Day Weather Forecast

Advertisements
Track Severe Weather on mobile